Airfield :







YOU CAN JOIN US ON...

 
LOGIN :

Register | Disclaimer

   EN    FR    IT 

 









Legend :    VFR   Marginal VFR   IFR   Intensive IFR   Very Intensive IFR
Visi :
Ceiling :
>= 8 km
>= 3000ft
5 to 8 km
1000 to 3000 ft
1500m to 5 km
500 to 1000 ft
800 to 1500m
200 to 500 ft
< 800m
< 200 ft
Symbols :   Thunderstorms  Fog  Heavy snow  Heavy precipitations  Wind > 20 kt






- Airport Elevation : 1709 ft
- IATA code : YKL


CYKL - Schefferville

CURRENT METAR :
  • 192100Z AUTO 25007KT 210V280 9SM FEW240 17/12 A2973 RMK SLP083 DENSITY ALT 2600FT

EXPIRED METARs :
  • 192047Z AUTO 24010KT 9SM -RA FEW240 17/13 A2974 RMK SLP079 DENSITY ALT 2600FT
  • 192004Z AUTO 23008KT 9SM FEW066 16/13 A2974 RMK SLP082 DENSITY ALT 2500FT
  • 191939Z AUTO 23008G19KT 7SM -RA FEW018 BKN039 BKN250 15/13 A2974 RMK PCPN 1.2MM PAST HR SLP083 DENSITY ALT 2400FT
  • 191935Z AUTO 23013G19KT 5SM -RA FEW016 BKN039 BKN066 BKN250 16/12 A2975 RMK PCPN 1.0MM PAST HR SLP084 DENSITY ALT 2400FT
  • 191900Z AUTO 23008KT 9SM SCT041 BKN050 BKN060 18/11 A2974 RMK SLP083 DENSITY ALT 2700FT
  • 191805Z AUTO 25010G17KT 9SM FEW042 SCT050 OVC071 17/11 A2974 RMK SLP079 DENSITY ALT 2600FT
  • 191747Z AUTO 24013G18KT 220V280 9SM -RA SCT042 OVC066 17/12 A2974 RMK SLP078 DENSITY ALT 2600FT
  • 191700Z AUTO 24007G15KT 9SM FEW027 BKN042 OVC055 16/11 A2974 RMK SLP084 DENSITY ALT 2400FT

TAF TAF CYKL
Valid from the 19 at 20:00 until the 20 at 08:00 UTC


191940Z 1920/2008 23012KT P6SM BKN060
TEMPO 1920/1923 5SM -SHRA BR
FM192300 18007KT P6SM -RA OVC025
TEMPO 1923/2006 5SM -RA BR OVC020
FM200600 18010KT P6SM -RA OVC015
PROB30 2006/2008 OVC007 RMK FCST BASED ON AUTO OBS. NXT FCST BY 200200Z
CZUL FIR / North America



MET'MAP, your aeronautical weather chart ! - Copyright ORBIFLY December 2007 - Disclaimer

ORBIFLY MET'MAP TEAM :

Programming & Development : Alexandra Zaïnal
Original concept : Baudouin d'Aumeries
Technical & hardware support : Manuel Goepfert
Assistance : Marc-Olivier Méhu




SOURCES & CREDITS :

   NOAA